Time;durP1;ratioP1;P1;durP2;ratioP2;P2;SDS_P1;SDS_P2;PMS_P1;PMS_P2;Temp;Humidity;BMP_temperature;BMP_pressure;BME280_temperature;BME280_humidity;BME280_pressure;Samples;Min_cycle;Max_cycle;Signal;HPM_P1;HPM_P2
2023/01/19 00:00:30;;;;;;;39.35;14.75;;;;;;;-5.04;90.43;99645.16;5117680;28;20092;-69
2023/01/19 00:02:57;;;;;;;30.13;14.20;;;;;;;-5.09;90.20;99649.81;5116424;28;20044;-69
2023/01/19 00:05:23;;;;;;;37.25;14.00;;;;;;;-5.15;90.05;99644.94;5116728;28;20036;-68
2023/01/19 00:07:50;;;;;;;30.55;14.18;;;;;;;-5.15;90.56;99651.00;5117287;28;20066;-69
2023/01/19 00:10:16;;;;;;;33.20;14.30;;;;;;;-5.12;90.26;99656.06;5115527;28;20087;-70
2023/01/19 00:12:43;;;;;;;33.75;14.30;;;;;;;-5.18;90.14;99659.00;5117010;28;20040;-70
2023/01/19 00:15:10;;;;;;;32.83;14.50;;;;;;;-5.12;90.09;99663.06;5116393;28;20039;-70
2023/01/19 00:17:39;;;;;;;32.45;14.20;;;;;;;-5.14;90.14;99664.91;5116832;28;20078;-69
2023/01/19 00:20:08;;;;;;;30.88;14.27;;;;;;;-5.24;90.09;99673.28;5116871;28;20028;-68
2023/01/19 00:22:34;;;;;;;28.27;14.82;;;;;;;-5.20;90.17;99677.41;5116837;28;20044;-69
2023/01/19 00:25:01;;;;;;;34.22;14.85;;;;;;;-5.29;90.77;99672.69;5117459;28;20084;-69
2023/01/19 00:27:29;;;;;;;38.15;15.07;;;;;;;-5.23;90.45;99681.97;5116719;28;20032;-70
2023/01/19 00:29:56;;;;;;;40.85;15.18;;;;;;;-5.38;90.85;99685.44;5112445;28;20028;-69
2023/01/19 00:32:22;;;;;;;38.25;14.60;;;;;;;-5.42;91.22;99684.75;5102482;28;20060;-70
2023/01/19 00:34:51;;;;;;;33.38;14.13;;;;;;;-5.45;91.19;99687.53;5100793;28;20032;-69
2023/01/19 00:37:17;;;;;;;32.10;15.27;;;;;;;-5.57;91.81;99694.25;5099181;28;20029;-69
2023/01/19 00:39:44;;;;;;;31.55;15.10;;;;;;;-5.65;91.83;99683.38;5099726;28;20051;-68
2023/01/19 00:44:57;;;;;;;33.17;15.98;;;;;;;-5.61;92.27;99697.13;5100025;28;20126;-68
2023/01/19 00:47:23;;;;;;;34.47;14.13;;;;;;;-5.57;91.55;99696.88;5125035;28;20040;-69
2023/01/19 00:49:50;;;;;;;30.45;14.15;;;;;;;-5.56;91.59;99690.75;5115950;28;20044;-69
2023/01/19 00:52:16;;;;;;;34.88;15.13;;;;;;;-5.47;91.21;99689.38;5115823;28;20044;-69
2023/01/19 00:54:43;;;;;;;43.38;15.35;;;;;;;-5.52;90.95;99696.66;5115407;28;20052;-68
2023/01/19 00:57:10;;;;;;;35.38;15.75;;;;;;;-5.51;90.80;99693.09;5109179;28;20072;-68
2023/01/19 00:59:36;;;;;;;28.50;14.95;;;;;;;-5.60;90.53;99698.81;5115144;28;20032;-68
2023/01/19 01:02:03;;;;;;;30.33;15.05;;;;;;;-5.61;90.84;99711.03;5115923;28;20111;-67
2023/01/19 01:04:29;;;;;;;41.35;15.27;;;;;;;-5.64;91.60;99702.50;5114500;28;20036;-68
2023/01/19 01:06:56;;;;;;;33.70;14.40;;;;;;;-5.76;92.08;99698.81;5114429;28;20040;-68
2023/01/19 01:09:23;;;;;;;34.83;13.40;;;;;;;-5.78;92.27;99706.69;5114387;28;20043;-68
2023/01/19 01:11:49;;;;;;;42.35;16.27;;;;;;;-5.83;92.47;99703.50;5113831;28;20046;-68
2023/01/19 01:14:17;;;;;;;32.17;16.05;;;;;;;-5.81;92.45;99699.03;5114679;28;20028;-67
2023/01/19 01:16:43;;;;;;;32.85;14.93;;;;;;;-5.83;92.71;99702.66;5113817;28;20044;-67
2023/01/19 01:19:10;;;;;;;29.17;14.55;;;;;;;-5.84;92.55;99704.41;5113699;28;20054;-67
2023/01/19 01:21:36;;;;;;;39.50;14.93;;;;;;;-5.84;93.01;99700.94;5114361;28;20108;-69
2023/01/19 01:24:03;;;;;;;34.92;15.23;;;;;;;-5.93;93.24;99702.31;5114885;28;20107;-67
2023/01/19 01:26:30;;;;;;;33.65;15.40;;;;;;;-5.87;93.20;99707.22;5113807;28;20028;-67
2023/01/19 01:28:57;;;;;;;32.78;14.50;;;;;;;-5.99;93.19;99707.84;5113371;28;20100;-68
2023/01/19 01:31:24;;;;;;;33.33;14.88;;;;;;;-5.89;93.59;99718.66;5112757;28;20050;-67
2023/01/19 01:33:50;;;;;;;33.83;14.85;;;;;;;-5.92;93.58;99714.44;5112392;28;20032;-68
2023/01/19 01:36:17;;;;;;;31.23;14.85;;;;;;;-5.87;93.29;99724.63;5112839;28;20091;-67
2023/01/19 01:38:44;;;;;;;32.15;14.20;;;;;;;-5.81;93.00;99719.91;5111897;28;20116;-68
2023/01/19 01:41:10;;;;;;;36.08;15.00;;;;;;;-5.84;92.94;99721.84;5112604;28;20060;-68
2023/01/19 01:43:57;;;;;;;28.40;14.80;;;;;;;-5.84;92.68;99720.06;5110688;28;20039;-67
2023/01/19 01:46:25;;;;;;;39.88;16.10;;;;;;;-5.85;92.73;99718.41;5111488;28;20044;-67
2023/01/19 01:49:12;;;;;;;36.90;14.45;;;;;;;-5.87;92.43;99719.41;5116504;28;20048;-68
2023/01/19 01:51:51;;;;;;;30.05;13.73;;;;;;;-5.86;92.41;99721.94;5094901;28;20056;-67
2023/01/19 01:54:31;;;;;;;27.13;13.88;;;;;;;-5.88;92.77;99722.94;5094802;28;20065;-67
2023/01/19 01:57:03;;;;;;;34.33;14.43;;;;;;;-5.78;91.78;99729.38;5095170;28;20061;-68
2023/01/19 01:59:37;;;;;;;33.95;15.30;;;;;;;-5.89;92.41;99721.25;5095538;28;20048;-68
2023/01/19 02:14:25;;;;;;;36.10;14.85;;;;;;;-6.17;93.59;99714.84;5052694;28;20053;-68
2023/01/19 02:16:52;;;;;;;28.92;13.73;;;;;;;-6.21;93.44;99713.34;5051879;28;20053;-67
2023/01/19 02:19:25;;;;;;;32.30;14.50;;;;;;;-6.14;93.25;99713.88;5052386;28;20575;-67
2023/01/19 02:22:02;;;;;;;34.42;13.27;;;;;;;-6.10;92.59;99710.16;5052240;28;20049;-67
2023/01/19 02:24:29;;;;;;;33.70;14.60;;;;;;;-6.11;92.23;99714.56;5051754;28;20067;-67
2023/01/19 02:26:56;;;;;;;33.75;15.07;;;;;;;-6.16;92.27;99719.97;5052923;28;20648;-68
2023/01/19 02:29:25;;;;;;;33.28;13.75;;;;;;;-6.17;92.09;99718.31;5051831;28;20060;-68
2023/01/19 02:31:52;;;;;;;28.30;14.65;;;;;;;-6.20;92.57;99725.44;5050929;28;20190;-68
2023/01/19 02:34:21;;;;;;;29.88;13.80;;;;;;;-6.17;92.08;99720.91;5051107;28;20055;-68
2023/01/19 02:36:53;;;;;;;28.98;13.85;;;;;;;-6.20;92.35;99720.22;5051217;28;20045;-68
2023/01/19 02:39:27;;;;;;;30.73;13.25;;;;;;;-6.31;92.83;99712.94;5081714;28;20048;-68
2023/01/19 02:42:01;;;;;;;34.13;14.90;;;;;;;-6.33;92.14;99708.72;5092574;28;20063;-68
2023/01/19 02:44:29;;;;;;;29.30;13.93;;;;;;;-6.28;92.21;99710.19;5092898;28;20109;-68
2023/01/19 02:46:56;;;;;;;34.55;13.63;;;;;;;-6.23;92.28;99704.72;5092749;28;20100;-67
2023/01/19 02:49:26;;;;;;;32.53;14.70;;;;;;;-6.31;92.04;99709.50;5092949;28;20044;-68
2023/01/19 02:51:53;;;;;;;35.90;15.93;;;;;;;-6.44;92.65;99702.28;5091321;28;20053;-68
2023/01/19 02:54:47;;;;;;;31.08;13.32;;;;;;;-6.62;93.92;99708.41;5092970;28;20075;-68
2023/01/19 02:57:19;;;;;;;34.35;15.27;;;;;;;-6.56;94.59;99707.25;5093087;28;20120;-67
2023/01/19 03:00:04;;;;;;;35.35;15.73;;;;;;;-6.54;94.16;99710.63;5088696;28;20112;-68
2023/01/19 03:02:45;;;;;;;35.00;15.85;;;;;;;-6.63;93.91;99699.75;5092657;28;20048;-68
2023/01/19 03:05:18;;;;;;;38.83;16.42;;;;;;;-6.62;94.42;99703.19;5093050;28;20048;-68
2023/01/19 03:08:07;;;;;;;37.45;15.55;;;;;;;-6.64;94.82;99708.47;5092536;28;20044;-68
2023/01/19 03:11:02;;;;;;;37.55;17.65;;;;;;;-6.46;93.65;99718.91;5092041;28;20104;-68
2023/01/19 03:13:41;;;;;;;33.88;15.82;;;;;;;-6.42;93.42;99715.25;5091464;28;20078;-68
2023/01/19 03:16:31;;;;;;;31.23;14.00;;;;;;;-6.43;92.85;99710.94;5092686;28;20048;-67
2023/01/19 03:19:05;;;;;;;39.05;16.80;;;;;;;-6.39;92.79;99707.25;5080014;28;20035;-68
2023/01/19 03:21:35;;;;;;;38.47;16.35;;;;;;;-6.45;92.54;99710.19;5090404;28;20049;-67
2023/01/19 03:24:05;;;;;;;39.53;16.45;;;;;;;-6.41;92.83;99703.91;5092507;28;20053;-67
2023/01/19 03:26:37;;;;;;;34.13;15.90;;;;;;;-6.43;93.14;99710.94;5093887;28;20116;-67
2023/01/19 03:29:07;;;;;;;38.08;15.82;;;;;;;-6.44;92.47;99717.09;5094079;28;20044;-68
2023/01/19 03:31:35;;;;;;;39.40;17.10;;;;;;;-6.45;92.81;99723.25;5110218;28;20112;-68
2023/01/19 03:34:06;;;;;;;36.08;17.33;;;;;;;-6.46;93.03;99718.91;5113775;28;20078;-68
2023/01/19 03:36:41;;;;;;;47.20;17.55;;;;;;;-6.55;93.14;99715.03;5113541;28;20044;-69
2023/01/19 03:39:11;;;;;;;40.63;17.55;;;;;;;-6.60;93.22;99714.38;5113125;28;20063;-67
2023/01/19 03:41:40;;;;;;;41.28;17.42;;;;;;;-6.55;93.62;99711.56;5111631;28;20067;-67
2023/01/19 03:44:07;;;;;;;48.80;18.75;;;;;;;-6.56;93.66;99712.47;5111210;28;20467;-67
2023/01/19 03:46:34;;;;;;;32.97;17.10;;;;;;;-6.57;93.54;99721.22;5111168;28;20440;-67
2023/01/19 03:49:00;;;;;;;36.53;17.25;;;;;;;-6.70;93.88;99727.06;5111331;28;20052;-68
2023/01/19 03:51:27;;;;;;;33.80;17.25;;;;;;;-6.77;94.59;99727.41;5112462;28;20066;-67
2023/01/19 03:53:53;;;;;;;40.65;17.17;;;;;;;-6.72;94.35;99726.28;5113296;28;20127;-67
2023/01/19 03:56:24;;;;;;;36.45;18.05;;;;;;;-6.86;94.70;99726.13;5113168;28;20047;-67
2023/01/19 03:58:51;;;;;;;40.60;18.17;;;;;;;-6.83;95.24;99728.56;5096088;28;20071;-67
2023/01/19 04:01:21;;;;;;;38.15;18.23;;;;;;;-6.84;95.05;99733.84;5111919;28;20138;-68
2023/01/19 04:03:49;;;;;;;37.53;17.60;;;;;;;-7.01;95.76;99732.91;5112830;28;20044;-67
2023/01/19 04:06:16;;;;;;;40.42;19.92;;;;;;;-6.89;95.88;99729.69;5112950;28;20052;-67
2023/01/19 04:08:42;;;;;;;45.17;19.02;;;;;;;-7.02;96.34;99723.38;5112227;28;20112;-68
2023/01/19 04:11:09;;;;;;;44.35;18.55;;;;;;;-6.91;96.02;99728.06;5107230;28;20498;-66
2023/01/19 04:13:37;;;;;;;43.00;19.27;;;;;;;-7.04;95.80;99729.59;5091322;28;20051;-66
2023/01/19 04:16:04;;;;;;;46.05;17.33;;;;;;;-7.09;96.19;99719.38;5091053;28;20047;-66
2023/01/19 04:18:32;;;;;;;35.90;17.60;;;;;;;-6.96;95.58;99735.28;5091465;28;20044;-66
2023/01/19 04:21:02;;;;;;;42.10;17.88;;;;;;;-7.00;95.98;99728.53;5090831;28;20491;-66
2023/01/19 04:23:30;;;;;;;43.00;18.70;;;;;;;-6.99;95.71;99725.84;5090736;28;20044;-67
2023/01/19 04:26:03;;;;;;;44.13;18.60;;;;;;;-7.08;95.96;99730.66;5091933;28;20044;-66
2023/01/19 04:28:30;;;;;;;37.42;18.35;;;;;;;-7.17;96.20;99730.19;5093033;28;20044;-65
2023/01/19 04:30:56;;;;;;;37.42;16.90;;;;;;;-7.22;96.22;99732.16;5092324;28;20066;-65
2023/01/19 04:33:24;;;;;;;40.08;19.58;;;;;;;-7.22;96.11;99734.78;5093273;28;20393;-65
2023/01/19 04:35:51;;;;;;;35.13;16.52;;;;;;;-7.38;96.59;99744.22;5084142;28;20470;-65
2023/01/19 04:38:20;;;;;;;42.33;17.92;;;;;;;-7.38;96.73;99733.78;5092820;28;20046;-66
2023/01/19 04:40:48;;;;;;;35.47;17.05;;;;;;;-7.43;97.45;99735.75;5092943;28;20054;-66
2023/01/19 04:43:14;;;;;;;46.63;19.88;;;;;;;-7.42;97.63;99732.25;5093011;28;20068;-66
2023/01/19 04:45:43;;;;;;;43.67;18.17;;;;;;;-7.46;97.61;99736.75;5093633;28;20050;-67
2023/01/19 04:48:10;;;;;;;37.75;17.23;;;;;;;-7.51;97.67;99735.25;5079864;28;20440;-67
2023/01/19 04:50:37;;;;;;;45.45;19.10;;;;;;;-7.59;97.75;99741.66;5076254;28;20072;-66
2023/01/19 04:53:04;;;;;;;39.40;17.80;;;;;;;-7.55;98.16;99737.16;5076654;28;20052;-65
2023/01/19 04:55:30;;;;;;;44.97;19.15;;;;;;;-7.51;97.80;99737.88;5076418;28;20040;-66
2023/01/19 04:57:57;;;;;;;37.55;18.20;;;;;;;-7.54;97.64;99730.19;5078433;28;20052;-66
2023/01/19 05:00:23;;;;;;;39.90;18.58;;;;;;;-7.65;97.58;99739.31;5075354;28;20054;-66
2023/01/19 05:02:50;;;;;;;36.42;18.13;;;;;;;-7.63;97.71;99737.50;5076489;28;20056;-66
2023/01/19 05:05:17;;;;;;;37.42;17.65;;;;;;;-7.69;98.22;99735.19;5072346;28;20068;-65
2023/01/19 05:07:44;;;;;;;53.60;19.02;;;;;;;-7.70;98.02;99737.84;5088482;28;20048;-66
2023/01/19 05:10:10;;;;;;;37.28;17.58;;;;;;;-7.74;98.42;99737.16;5093859;28;20040;-67
2023/01/19 05:12:37;;;;;;;40.05;17.33;;;;;;;-7.62;98.55;99739.19;5093143;28;20485;-66
2023/01/19 05:15:06;;;;;;;37.80;19.35;;;;;;;-7.51;97.66;99735.25;5092752;28;20052;-65
2023/01/19 05:17:33;;;;;;;36.20;18.80;;;;;;;-7.47;97.40;99739.41;5092393;28;20459;-66
2023/01/19 05:19:59;;;;;;;41.22;17.33;;;;;;;-7.44;97.03;99744.47;5092110;28;20114;-66
2023/01/19 05:22:26;;;;;;;40.53;17.75;;;;;;;-7.43;96.43;99746.16;5092430;28;20411;-66
2023/01/19 05:24:53;;;;;;;39.42;18.30;;;;;;;-7.49;96.74;99736.03;5092119;28;20108;-66
2023/01/19 05:27:19;;;;;;;38.53;18.55;;;;;;;-7.47;96.70;99731.59;5092250;28;20067;-65
2023/01/19 05:29:46;;;;;;;34.75;16.30;;;;;;;-7.54;96.64;99735.38;5092099;28;20044;-66
2023/01/19 05:32:14;;;;;;;38.50;18.00;;;;;;;-7.56;96.27;99739.84;5072689;28;20650;-68
2023/01/19 05:34:41;;;;;;;38.47;17.52;;;;;;;-7.62;96.99;99747.00;5092436;28;20099;-65
2023/01/19 05:37:07;;;;;;;34.33;17.25;;;;;;;-7.60;97.06;99746.94;5092287;28;20040;-66
2023/01/19 05:39:34;;;;;;;42.88;19.23;;;;;;;-7.60;97.40;99747.78;5091801;28;20052;-65
2023/01/19 05:42:00;;;;;;;38.63;17.63;;;;;;;-7.66;97.28;99748.06;5091365;28;20447;-66
2023/01/19 05:44:26;;;;;;;38.20;17.75;;;;;;;-7.55;97.01;99757.16;5092230;28;20092;-67
2023/01/19 05:46:53;;;;;;;44.10;18.25;;;;;;;-7.57;96.90;99753.75;5089193;28;20044;-66
2023/01/19 05:49:19;;;;;;;36.17;18.00;;;;;;;-7.46;97.19;99759.34;5092036;28;20105;-67
2023/01/19 05:51:46;;;;;;;36.88;17.10;;;;;;;-7.38;97.73;99770.25;5092210;28;20423;-66
2023/01/19 05:54:16;;;;;;;40.38;17.88;;;;;;;-7.27;97.01;99772.38;5092015;28;20420;-66
2023/01/19 05:56:43;;;;;;;39.00;17.90;;;;;;;-7.35;95.99;99773.56;5091855;28;20122;-66
2023/01/19 05:59:10;;;;;;;37.03;18.65;;;;;;;-7.30;95.43;99778.56;5091857;28;20050;-66
2023/01/19 06:01:37;;;;;;;38.60;18.48;;;;;;;-7.37;95.16;99778.00;5090992;28;20040;-66
2023/01/19 06:04:05;;;;;;;35.47;17.10;;;;;;;-7.37;95.42;99784.97;5092110;28;20048;-65
2023/01/19 06:06:32;;;;;;;36.60;16.50;;;;;;;-7.56;95.27;99784.13;5091762;28;20066;-65
2023/01/19 06:08:58;;;;;;;39.15;18.13;;;;;;;-7.46;95.74;99791.47;5092434;28;20059;-66
2023/01/19 06:11:25;;;;;;;31.15;16.48;;;;;;;-7.44;94.47;99791.38;5082637;28;20040;-67
2023/01/19 06:13:51;;;;;;;34.10;16.50;;;;;;;-7.53;94.89;99797.84;5090154;28;20482;-67
2023/01/19 06:16:18;;;;;;;35.65;16.88;;;;;;;-7.60;94.53;99797.28;5091209;28;20067;-67
2023/01/19 06:18:45;;;;;;;41.40;17.15;;;;;;;-7.64;95.02;99789.66;5091035;28;20500;-66
2023/01/19 06:21:13;;;;;;;33.80;16.60;;;;;;;-7.69;95.26;99797.69;5091498;28;20457;-65
2023/01/19 06:23:39;;;;;;;35.47;16.55;;;;;;;-7.62;95.18;99790.44;5092194;28;20044;-65
2023/01/19 06:26:07;;;;;;;36.17;16.33;;;;;;;-7.68;95.12;99788.94;5092613;28;20040;-67
2023/01/19 06:28:33;;;;;;;41.65;17.30;;;;;;;-7.71;95.15;99778.66;5092396;28;20483;-66
2023/01/19 06:31:00;;;;;;;37.03;16.48;;;;;;;-7.74;95.73;99789.22;5089807;28;20040;-67
2023/01/19 06:33:27;;;;;;;43.60;16.33;;;;;;;-7.73;95.72;99796.13;5089968;28;20062;-68
2023/01/19 06:35:55;;;;;;;30.83;15.88;;;;;;;-7.69;95.06;99786.41;5092526;28;20044;-67
2023/01/19 06:38:21;;;;;;;27.88;15.50;;;;;;;-7.62;94.83;99795.66;5094607;28;20059;-66
2023/01/19 06:41:01;;;;;;;33.17;16.00;;;;;;;-7.65;94.76;99794.00;5094293;28;20514;-67
2023/01/19 06:43:28;;;;;;;32.05;14.68;;;;;;;-7.61;94.41;99799.94;5094366;28;20052;-67
2023/01/19 06:45:55;;;;;;;32.20;15.43;;;;;;;-7.62;94.39;99788.69;5095227;28;20415;-65
2023/01/19 06:48:22;;;;;;;41.25;16.38;;;;;;;-7.59;94.11;99788.53;5094078;28;20036;-66
2023/01/19 06:50:49;;;;;;;34.10;15.43;;;;;;;-7.63;93.97;99788.75;5093275;28;20044;-67
2023/01/19 06:53:16;;;;;;;34.63;15.80;;;;;;;-7.65;94.43;99793.19;5092500;28;20142;-66
2023/01/19 06:55:43;;;;;;;30.30;15.30;;;;;;;-7.49;94.44;99790.75;5091982;28;20123;-66
2023/01/19 06:58:10;;;;;;;33.00;16.60;;;;;;;-7.46;93.99;99793.22;5093145;28;20044;-66
2023/01/19 07:00:37;;;;;;;31.23;14.80;;;;;;;-7.43;93.34;99800.88;5092452;28;20044;-66
2023/01/19 07:03:06;;;;;;;30.60;15.23;;;;;;;-7.42;93.13;99794.78;5092779;28;20435;-66
2023/01/19 07:05:34;;;;;;;26.75;13.75;;;;;;;-7.40;92.86;99806.78;5092204;28;20050;-67
2023/01/19 07:08:02;;;;;;;35.30;15.27;;;;;;;-7.47;92.65;99802.78;5091975;28;20449;-66
2023/01/19 07:10:28;;;;;;;32.13;14.15;;;;;;;-7.44;92.38;99804.41;5092629;28;20553;-68
2023/01/19 07:13:15;;;;;;;29.95;14.10;;;;;;;-7.46;92.48;99803.63;5077035;28;20051;-67
2023/01/19 07:15:42;;;;;;;31.00;14.10;;;;;;;-7.48;92.26;99805.47;5091728;28;20485;-66
2023/01/19 07:18:09;;;;;;;25.85;12.93;;;;;;;-7.52;92.46;99803.91;5092099;28;20595;-67
2023/01/19 07:20:36;;;;;;;32.92;14.20;;;;;;;-7.45;92.53;99811.38;5090574;28;20381;-70
2023/01/19 07:23:03;;;;;;;39.08;15.20;;;;;;;-7.48;92.33;99808.91;5091684;28;20064;-70
2023/01/19 07:25:29;;;;;;;46.90;15.23;;;;;;;-7.40;91.72;99808.56;5091109;28;20093;-70
2023/01/19 07:27:59;;;;;;;43.50;15.82;;;;;;;-7.40;92.30;99814.59;5092795;28;20044;-69
2023/01/19 07:30:26;;;;;;;31.13;14.18;;;;;;;-7.47;92.21;99813.19;5091463;28;20046;-70
2023/01/19 07:32:57;;;;;;;35.53;15.82;;;;;;;-7.49;92.14;99819.41;5091716;28;20040;-69
2023/01/19 07:35:24;;;;;;;35.17;14.70;;;;;;;-7.54;92.30;99821.34;5075038;28;20097;-69
2023/01/19 07:37:51;;;;;;;29.77;14.57;;;;;;;-7.50;92.41;99828.94;5092898;28;20056;-69
2023/01/19 07:40:17;;;;;;;32.70;15.63;;;;;;;-7.49;91.91;99828.06;5092299;28;20044;-69
2023/01/19 07:42:49;;;;;;;32.30;14.93;;;;;;;-7.39;91.90;99831.13;5092276;28;20427;-69
2023/01/19 07:45:16;;;;;;;38.85;15.05;;;;;;;-7.38;91.85;99828.44;5092046;28;20044;-69
2023/01/19 07:47:44;;;;;;;37.28;16.30;;;;;;;-7.39;91.51;99831.13;5090530;28;20054;-69
2023/01/19 07:50:12;;;;;;;38.90;14.95;;;;;;;-7.38;91.12;99828.44;5092380;28;20488;-69
2023/01/19 07:52:39;;;;;;;31.08;13.93;;;;;;;-7.29;90.60;99835.00;5091024;28;20093;-69
2023/01/19 07:55:06;;;;;;;33.53;14.18;;;;;;;-7.38;90.60;99827.59;5091521;28;20050;-70
2023/01/19 07:57:33;;;;;;;25.70;12.55;;;;;;;-7.36;90.45;99836.16;5092008;28;20052;-69
2023/01/19 08:00:00;;;;;;;29.23;12.00;;;;;;;-7.29;90.47;99837.59;5093291;28;20505;-70
2023/01/19 08:02:27;;;;;;;26.35;12.55;;;;;;;-7.25;89.93;99840.91;5094208;28;20052;-69
2023/01/19 08:04:53;;;;;;;23.52;12.40;;;;;;;-7.26;89.69;99841.81;5092896;28;20103;-70
2023/01/19 08:07:20;;;;;;;28.13;12.88;;;;;;;-7.24;89.63;99845.22;5090316;28;20040;-69
2023/01/19 08:09:47;;;;;;;28.08;11.93;;;;;;;-7.14;89.42;99849.94;5091979;28;20052;-69
2023/01/19 08:12:13;;;;;;;29.17;13.15;;;;;;;-7.13;89.12;99837.75;5092858;28;20063;-69
2023/01/19 08:14:40;;;;;;;25.70;11.57;;;;;;;-7.22;88.81;99844.22;5092014;28;20490;-69
2023/01/19 08:17:11;;;;;;;30.92;13.25;;;;;;;-7.08;88.47;99843.63;5092910;28;20054;-69
2023/01/19 08:19:38;;;;;;;27.33;11.57;;;;;;;-7.14;88.82;99844.72;5093125;28;20480;-69
2023/01/19 08:22:07;;;;;;;24.45;12.00;;;;;;;-7.14;89.10;99843.88;5074630;28;20131;-69
2023/01/19 08:24:43;;;;;;;27.40;12.10;;;;;;;-7.12;88.44;99849.84;5093199;28;20496;-69
2023/01/19 08:27:09;;;;;;;27.98;12.30;;;;;;;-7.00;88.77;99853.69;5093279;28;20068;-69
2023/01/19 08:29:38;;;;;;;27.33;12.05;;;;;;;-6.96;87.92;99869.09;5091689;28;20514;-69
2023/01/19 08:32:05;;;;;;;28.73;11.82;;;;;;;-6.99;87.32;99860.59;5093514;28;20501;-69
2023/01/19 08:34:32;;;;;;;21.33;10.88;;;;;;;-6.98;87.24;99872.69;5092889;28;20044;-70
2023/01/19 08:36:58;;;;;;;26.30;10.65;;;;;;;-6.93;87.43;99878.56;5084741;28;20055;-69
2023/01/19 08:39:26;;;;;;;38.63;11.25;;;;;;;-6.94;87.56;99871.66;5076330;28;20043;-69
2023/01/19 08:41:53;;;;;;;28.27;11.88;;;;;;;-6.93;87.41;99868.13;5093129;28;20048;-69
2023/01/19 08:44:19;;;;;;;23.45;11.05;;;;;;;-6.85;87.94;99863.41;5092428;28;20058;-69
2023/01/19 08:46:46;;;;;;;22.25;10.75;;;;;;;-6.81;87.47;99872.75;5092034;28;20065;-69
2023/01/19 08:49:13;;;;;;;27.60;10.63;;;;;;;-6.81;87.61;99875.38;5090762;28;20533;-69
2023/01/19 08:51:40;;;;;;;24.08;11.52;;;;;;;-6.75;87.33;99875.09;5092661;28;20075;-69
2023/01/19 08:54:06;;;;;;;25.48;11.70;;;;;;;-6.72;87.50;99880.16;5093750;28;20048;-69
2023/01/19 08:56:33;;;;;;;22.23;12.00;;;;;;;-6.67;87.29;99879.94;5093643;28;20108;-69
2023/01/19 08:58:59;;;;;;;24.17;11.40;;;;;;;-6.67;86.93;99887.78;5094471;28;20071;-70
2023/01/19 09:01:35;;;;;;;23.98;10.65;;;;;;;-6.54;86.25;99878.47;5094909;28;20047;-69
2023/01/19 09:04:03;;;;;;;20.85;9.75;;;;;;;-6.61;86.10;99878.84;5098576;28;20121;-70
2023/01/19 09:06:29;;;;;;;21.73;10.57;;;;;;;-6.52;86.60;99875.81;5102308;28;20046;-71
2023/01/19 09:08:56;;;;;;;22.52;10.32;;;;;;;-6.52;86.24;99873.19;5103304;28;20040;-69
2023/01/19 09:11:23;;;;;;;27.58;10.20;;;;;;;-6.44;85.87;99871.06;5102822;28;20044;-69
2023/01/19 09:13:49;;;;;;;22.45;10.35;;;;;;;-6.34;85.34;99880.13;5102540;28;20190;-69
2023/01/19 09:16:16;;;;;;;23.75;10.65;;;;;;;-6.26;85.29;99883.22;5103640;28;20048;-70
2023/01/19 09:18:44;;;;;;;27.55;9.95;;;;;;;-6.18;85.22;99883.72;5103085;28;20048;-70
2023/01/19 09:21:11;;;;;;;22.10;10.07;;;;;;;-6.13;85.09;99887.84;5102826;28;20081;-70
2023/01/19 09:23:37;;;;;;;23.55;10.18;;;;;;;-6.10;84.79;99890.31;5104157;28;20052;-69
2023/01/19 09:26:05;;;;;;;25.17;10.30;;;;;;;-5.99;84.90;99880.19;5101323;28;20046;-69
2023/01/19 09:28:31;;;;;;;20.63;9.30;;;;;;;-5.98;84.45;99892.31;5102030;28;20050;-70
2023/01/19 09:30:58;;;;;;;22.58;9.13;;;;;;;-5.96;84.68;99896.56;5102231;28;20040;-69
2023/01/19 09:33:25;;;;;;;18.10;9.55;;;;;;;-5.83;84.38;99891.56;5101783;28;20036;-69
2023/01/19 09:35:51;;;;;;;21.08;9.73;;;;;;;-5.84;84.18;99892.47;5103048;28;20131;-70
2023/01/19 09:38:19;;;;;;;21.17;8.80;;;;;;;-5.64;83.84;99890.66;5101640;28;20048;-69
2023/01/19 09:40:54;;;;;;;17.13;8.80;;;;;;;-5.71;83.28;99892.72;5101522;28;20047;-70
2023/01/19 09:43:32;;;;;;;18.70;9.05;;;;;;;-5.60;83.51;99882.56;5099671;28;20059;-69
2023/01/19 09:46:01;;;;;;;22.88;9.15;;;;;;;-5.48;83.15;99886.34;5101513;28;20109;-67
2023/01/19 09:48:31;;;;;;;23.20;9.77;;;;;;;-5.28;82.61;99885.28;5084448;28;20044;-70
2023/01/19 09:51:01;;;;;;;22.80;8.93;;;;;;;-5.26;82.12;99878.22;5103827;28;20044;-69
2023/01/19 09:53:27;;;;;;;14.73;8.90;;;;;;;-5.04;81.10;99873.56;5105511;28;20071;-69
2023/01/19 09:55:54;;;;;;;17.13;8.63;;;;;;;-4.61;79.27;99875.63;5105959;28;20044;-69
2023/01/19 09:58:21;;;;;;;21.27;9.25;;;;;;;-4.27;77.24;99862.34;5097372;28;20066;-69
2023/01/19 10:01:01;;;;;;;15.88;8.50;;;;;;;-4.05;75.45;99867.19;5105320;28;20051;-68
2023/01/19 10:03:28;;;;;;;16.92;8.55;;;;;;;-3.50;73.23;99868.38;5102777;28;20091;-68
2023/01/19 10:06:02;;;;;;;20.25;8.23;;;;;;;-3.05;71.33;99866.53;5102598;28;20047;-68
2023/01/19 10:08:43;;;;;;;18.20;8.20;;;;;;;-2.48;69.07;99862.97;5104335;28;20044;-69
2023/01/19 10:11:35;;;;;;;20.33;7.53;;;;;;;-2.17;67.32;99867.09;5105412;28;20051;-69
2023/01/19 10:14:33;;;;;;;18.02;7.22;;;;;;;-2.02;65.56;99868.72;5102391;28;20519;-69
2023/01/19 10:17:13;;;;;;;18.83;7.95;;;;;;;-1.90;65.27;99865.28;5101718;28;20047;-70
2023/01/19 10:19:46;;;;;;;21.05;8.68;;;;;;;-1.65;64.23;99863.63;5102732;28;20052;-69
2023/01/19 10:22:20;;;;;;;15.18;7.57;;;;;;;-1.83;64.06;99854.34;5100881;28;20131;-67
2023/01/19 10:24:52;;;;;;;14.70;7.78;;;;;;;-1.47;62.89;99861.53;5100223;28;20143;-69
2023/01/19 10:27:25;;;;;;;13.20;7.15;;;;;;;-1.28;62.78;99863.78;5099774;28;20044;-69
2023/01/19 10:29:52;;;;;;;19.85;7.72;;;;;;;-1.99;63.29;99860.66;5099399;28;20064;-70
2023/01/19 10:32:22;;;;;;;16.02;8.05;;;;;;;-1.89;64.61;99856.47;5097794;28;20051;-69
2023/01/19 10:34:49;;;;;;;15.40;6.90;;;;;;;-1.65;63.45;99851.31;5098595;28;20419;-69
2023/01/19 10:37:32;;;;;;;15.57;7.40;;;;;;;-1.44;63.27;99849.06;5097798;28;20430;-69
2023/01/19 10:40:07;;;;;;;17.17;7.85;;;;;;;-1.25;61.55;99850.41;5089163;28;20040;-69
2023/01/19 10:42:35;;;;;;;14.65;7.45;;;;;;;-1.31;61.59;99848.19;5095880;28;20032;-69
2023/01/19 10:45:03;;;;;;;17.80;8.48;;;;;;;-1.43;62.77;99847.25;5097901;28;20116;-69
2023/01/19 10:47:34;;;;;;;17.20;7.80;;;;;;;-1.21;62.00;99846.63;5096708;28;20032;-70
2023/01/19 10:50:33;;;;;;;13.82;7.63;;;;;;;-1.26;62.13;99854.00;5096500;28;20128;-69
2023/01/19 10:53:05;;;;;;;12.73;7.32;;;;;;;-1.79;63.26;99851.41;5089278;28;20455;-69
2023/01/19 10:55:36;;;;;;;13.77;7.68;;;;;;;-1.36;63.44;99850.31;5095604;28;20079;-69
2023/01/19 10:58:05;;;;;;;15.88;8.70;;;;;;;-1.24;62.85;99852.94;5094156;28;20053;-69
2023/01/19 11:00:42;;;;;;;16.90;8.13;;;;;;;-1.48;63.70;99844.94;5094684;28;20052;-68
2023/01/19 11:03:29;;;;;;;23.20;7.50;;;;;;;-1.36;62.88;99842.44;5093205;28;20055;-68
2023/01/19 11:06:14;;;;;;;17.95;7.85;;;;;;;-0.97;61.96;99847.53;5093692;28;20055;-70
2023/01/19 11:08:43;;;;;;;16.52;9.00;;;;;;;-1.14;62.27;99832.91;5093613;28;20052;-70
2023/01/19 11:11:11;;;;;;;18.80;9.23;;;;;;;-0.82;61.60;99823.69;5093868;28;20044;-70
2023/01/19 11:13:39;;;;;;;18.52;8.55;;;;;;;-1.24;62.34;99829.25;5083182;28;20127;-70
2023/01/19 11:16:22;;;;;;;15.65;7.82;;;;;;;-0.59;61.26;99833.44;5092449;28;20048;-70
2023/01/19 11:18:52;;;;;;;15.93;8.70;;;;;;;-0.50;60.72;99829.31;5091867;28;20048;-70
2023/01/19 11:21:23;;;;;;;19.08;7.80;;;;;;;-0.59;60.68;99830.81;5091363;28;20048;-69
2023/01/19 11:23:57;;;;;;;18.60;8.13;;;;;;;-0.66;60.92;99829.56;5092333;28;20044;-69
2023/01/19 11:26:43;;;;;;;22.98;8.52;;;;;;;-1.00;62.28;99829.31;5095152;28;20040;-69
2023/01/19 11:29:17;;;;;;;15.15;8.20;;;;;;;-0.70;61.95;99825.47;5093904;28;20074;-69
2023/01/19 11:31:43;;;;;;;14.38;8.30;;;;;;;-0.85;62.19;99823.91;5093041;28;20063;-70
2023/01/19 11:34:36;;;;;;;17.75;8.55;;;;;;;-0.17;60.95;99822.50;5094060;28;20044;-69
2023/01/19 11:37:05;;;;;;;20.30;8.00;;;;;;;-0.07;60.26;99819.06;5093546;28;20046;-69
2023/01/19 11:39:46;;;;;;;20.80;8.65;;;;;;;-0.14;60.05;99817.84;5093653;28;20051;-70
2023/01/19 11:42:14;;;;;;;16.37;7.70;;;;;;;-0.47;60.84;99807.97;5095118;28;20093;-70
2023/01/19 11:44:56;;;;;;;15.15;7.85;;;;;;;-0.22;60.45;99807.88;5093684;28;20044;-69